Terminal Aerodrome Forecast
Issued by NWS Portland, OR

Home | Current Version | Previous Version | Text Only | Print | Product List | Glossary On
Versions: 1 2 3 4 5 6 7 8 9 10 11 12 13 14 15
000
FTUS46 KPQR 252325
TAFAST
TAF
KAST 252325Z 2600/2624 19027G40KT 4SM -RA BKN020 OVC035
     FM260100 22022G36KT 5SM -SHRA BKN015 OVC030
     FM260500 25012G23KT P6SM -SHRA BKN025 BKN045
     FM261200 25011KT P6SM -SHRA SCT025 BKN050=

USA.gov is the U.S. government's official web portal to all federal, state and local government web resources and services.